Time;durP1;ratioP1;P1;durP2;ratioP2;P2;SDS_P1;SDS_P2;PMS_P1;PMS_P2;Temp;Humidity;BMP_temperature;BMP_pressure;BME280_temperature;BME280_humidity;BME280_pressure;Samples;Min_cycle;Max_cycle;Signal;HPM_P1;HPM_P2
2022/10/09 00:00:31;;;;;;;8.00;4.32;;;;;;;;;;4975577;28;20046;-76
2022/10/09 00:02:56;;;;;;;7.10;3.92;;;;;;;;;;4993296;28;20081;-75
2022/10/09 00:05:25;;;;;;;12.02;5.00;;;;;;;;;;4993341;28;20136;-76
2022/10/09 00:07:52;;;;;;;6.03;3.72;;;;;;;;;;4992909;28;20074;-76
2022/10/09 00:10:18;;;;;;;8.05;4.05;;;;;;;;;;4959579;28;20042;-77
2022/10/09 00:12:44;;;;;;;4.47;4.07;;;;;;;;;;4975469;28;20050;-76
2022/10/09 00:15:10;;;;;;;17.50;3.63;;;;;;;;;;4975702;28;20042;-76
2022/10/09 00:17:36;;;;;;;4.07;3.67;;;;;;;;;;4975534;28;20597;-76
2022/10/09 00:35:15;;;;;;;8.10;3.05;;;;;;;;;;4980617;28;20151;-76
2022/10/09 00:37:41;;;;;;;4.85;3.10;;;;;;;;;;4974978;28;20077;-76
2022/10/09 00:40:07;;;;;;;11.50;3.70;;;;;;;;;;4992698;28;20087;-75
2022/10/09 00:42:33;;;;;;;9.80;4.40;;;;;;;;;;4991067;28;20046;-75
2022/10/09 00:45:00;;;;;;;4.95;3.40;;;;;;;;;;4992532;28;20046;-76
2022/10/09 00:47:26;;;;;;;5.65;3.75;;;;;;;;;;4992559;28;20046;-76
2022/10/09 00:49:52;;;;;;;18.17;3.60;;;;;;;;;;4991970;28;20418;-76
2022/10/09 00:52:18;;;;;;;9.82;3.92;;;;;;;;;;4991201;28;20202;-75
2022/10/09 00:54:44;;;;;;;4.15;3.50;;;;;;;;;;4990978;28;20525;-75
2022/10/09 00:57:10;;;;;;;10.23;4.28;;;;;;;;;;4991041;28;20129;-76
2022/10/09 00:59:36;;;;;;;4.32;3.88;;;;;;;;;;4990784;28;20173;-75
2022/10/09 01:02:02;;;;;;;5.50;3.70;;;;;;;;;;4974862;28;20145;-76
2022/10/09 01:04:28;;;;;;;7.28;3.42;;;;;;;;;;4994272;28;20100;-77
2022/10/09 01:06:57;;;;;;;7.10;3.83;;;;;;;;;;4958817;28;20557;-77
2022/10/09 01:09:26;;;;;;;4.13;3.40;;;;;;;;;;4975057;28;20053;-75
2022/10/09 01:11:52;;;;;;;8.02;3.70;;;;;;;;;;4990285;28;20047;-75
2022/10/09 01:14:28;;;;;;;8.57;4.30;;;;;;;;;;4958812;28;20510;-75
2022/10/09 01:17:13;;;;;;;6.20;3.47;;;;;;;;;;4971785;28;20574;-76
2022/10/09 01:19:39;;;;;;;4.88;3.75;;;;;;;;;;4972412;28;20050;-76
2022/10/09 01:22:07;;;;;;;8.75;4.03;;;;;;;;;;4972395;28;20535;-75
2022/10/09 01:24:33;;;;;;;7.18;3.65;;;;;;;;;;4972136;28;20047;-76
2022/10/09 01:27:02;;;;;;;5.55;4.00;;;;;;;;;;4972256;28;20049;-76
2022/10/09 01:29:33;;;;;;;6.60;3.30;;;;;;;;;;4939258;28;20046;-75
2022/10/09 01:31:59;;;;;;;4.53;3.78;;;;;;;;;;4972274;28;20054;-75
2022/10/09 01:34:25;;;;;;;8.20;3.65;;;;;;;;;;4954469;28;20050;-75
2022/10/09 01:36:51;;;;;;;7.05;3.63;;;;;;;;;;4971834;28;20051;-76
2022/10/09 01:39:18;;;;;;;5.40;4.20;;;;;;;;;;4955145;28;20100;-76
2022/10/09 01:41:44;;;;;;;5.53;3.15;;;;;;;;;;4971814;28;20045;-75
2022/10/09 01:44:15;;;;;;;4.95;3.50;;;;;;;;;;4938925;28;20051;-74
2022/10/09 01:46:41;;;;;;;6.32;3.53;;;;;;;;;;4938661;28;20068;-76
2022/10/09 01:49:25;;;;;;;5.22;3.67;;;;;;;;;;4954903;28;20606;-76
2022/10/09 01:51:53;;;;;;;6.72;3.67;;;;;;;;;;4971516;28;20086;-76
2022/10/09 01:54:22;;;;;;;9.23;3.85;;;;;;;;;;4954732;28;20047;-77
2022/10/09 01:56:48;;;;;;;7.70;3.15;;;;;;;;;;4938508;28;20542;-75
2022/10/09 01:59:14;;;;;;;6.13;3.55;;;;;;;;;;4972212;28;20110;-74
2022/10/09 02:01:41;;;;;;;6.57;3.45;;;;;;;;;;4938622;28;20546;-76
2022/10/09 02:04:07;;;;;;;5.80;3.72;;;;;;;;;;4955030;28;20113;-75
2022/10/09 02:06:33;;;;;;;7.15;4.03;;;;;;;;;;4939836;28;20150;-76
2022/10/09 02:08:59;;;;;;;8.25;3.70;;;;;;;;;;4973438;28;20086;-76
2022/10/09 02:11:26;;;;;;;4.22;3.80;;;;;;;;;;4973735;28;20523;-76
2022/10/09 02:13:52;;;;;;;6.75;3.22;;;;;;;;;;4939863;28;20125;-76
2022/10/09 02:16:18;;;;;;;8.82;3.72;;;;;;;;;;4972745;28;20077;-75
2022/10/09 02:18:44;;;;;;;4.20;3.00;;;;;;;;;;4973675;28;20070;-76
2022/10/09 02:21:12;;;;;;;5.30;3.25;;;;;;;;;;4973543;28;20535;-75
2022/10/09 02:23:37;;;;;;;8.00;3.58;;;;;;;;;;4956233;28;20043;-77
2022/10/09 02:26:04;;;;;;;8.32;3.88;;;;;;;;;;4973785;28;20035;-75
2022/10/09 02:28:31;;;;;;;5.88;3.83;;;;;;;;;;4955931;28;20050;-76
2022/10/09 02:31:17;;;;;;;4.63;3.20;;;;;;;;;;4972443;28;20097;-76
2022/10/09 02:33:44;;;;;;;4.90;3.47;;;;;;;;;;4939916;28;20061;-76
2022/10/09 02:36:11;;;;;;;6.72;4.32;;;;;;;;;;4973293;28;20054;-75
2022/10/09 02:38:37;;;;;;;8.02;4.07;;;;;;;;;;4956057;28;20577;-74
2022/10/09 02:41:04;;;;;;;9.80;3.90;;;;;;;;;;4973825;28;20043;-75
2022/10/09 02:43:30;;;;;;;9.60;3.80;;;;;;;;;;4972357;28;20533;-75
2022/10/09 02:45:57;;;;;;;7.03;4.15;;;;;;;;;;4953717;28;20141;-76
2022/10/09 02:48:23;;;;;;;8.70;3.70;;;;;;;;;;4978065;28;20051;-74
2022/10/09 02:50:49;;;;;;;7.28;3.70;;;;;;;;;;4979965;28;20098;-76
2022/10/09 02:53:15;;;;;;;4.88;3.70;;;;;;;;;;4962897;28;20061;-75
2022/10/09 02:55:42;;;;;;;4.75;3.78;;;;;;;;;;4973196;28;20047;-75
2022/10/09 02:58:08;;;;;;;6.07;3.60;;;;;;;;;;4974064;28;20042;-75
2022/10/09 03:00:36;;;;;;;6.53;3.97;;;;;;;;;;4956748;28;20046;-75
2022/10/09 03:03:03;;;;;;;9.55;3.70;;;;;;;;;;4956296;28;20134;-75
2022/10/09 03:05:29;;;;;;;5.57;3.40;;;;;;;;;;4955741;28;20125;-76
2022/10/09 03:07:55;;;;;;;5.05;3.55;;;;;;;;;;4973075;28;20055;-75
2022/10/09 03:10:21;;;;;;;9.75;4.07;;;;;;;;;;4973390;28;20415;-76
2022/10/09 03:12:46;;;;;;;7.05;3.80;;;;;;;;;;4956165;28;20135;-76
2022/10/09 03:15:12;;;;;;;6.40;3.65;;;;;;;;;;4973474;28;20035;-75
2022/10/09 03:17:38;;;;;;;5.68;3.05;;;;;;;;;;4955922;28;20055;-77
2022/10/09 03:20:04;;;;;;;4.20;3.35;;;;;;;;;;4956692;28;20043;-76
2022/10/09 03:22:30;;;;;;;6.20;3.65;;;;;;;;;;4939846;28;20137;-75
2022/10/09 03:24:57;;;;;;;8.40;4.32;;;;;;;;;;4973639;28;20425;-75
2022/10/09 03:27:23;;;;;;;8.23;4.15;;;;;;;;;;4940869;28;20047;-75
2022/10/09 03:29:48;;;;;;;5.13;4.25;;;;;;;;;;4973658;28;20035;-75
2022/10/09 03:32:15;;;;;;;5.03;3.50;;;;;;;;;;4974409;28;20191;-77
2022/10/09 03:34:41;;;;;;;8.57;4.45;;;;;;;;;;4973713;28;20054;-75
2022/10/09 03:37:07;;;;;;;7.75;4.13;;;;;;;;;;4973631;28;20471;-75
2022/10/09 03:39:34;;;;;;;4.05;3.65;;;;;;;;;;4956658;28;20042;-76
2022/10/09 03:42:00;;;;;;;5.65;3.53;;;;;;;;;;4973065;28;20043;-76
2022/10/09 03:44:27;;;;;;;5.13;3.80;;;;;;;;;;4973429;28;20062;-77
2022/10/09 03:46:53;;;;;;;5.13;3.80;;;;;;;;;;4973164;28;20051;-76
2022/10/09 03:49:20;;;;;;;5.80;3.75;;;;;;;;;;4973130;28;20070;-76
2022/10/09 03:51:46;;;;;;;7.80;3.60;;;;;;;;;;4973127;28;20058;-76
2022/10/09 03:54:12;;;;;;;6.05;3.75;;;;;;;;;;4955971;28;20070;-76
2022/10/09 03:56:39;;;;;;;5.82;4.05;;;;;;;;;;4974812;28;20051;-76
2022/10/09 03:59:08;;;;;;;9.82;3.90;;;;;;;;;;4959463;28;20145;-74
2022/10/09 04:01:34;;;;;;;4.43;3.58;;;;;;;;;;4959039;28;20050;-75
2022/10/09 04:04:00;;;;;;;5.18;3.65;;;;;;;;;;4976571;28;20061;-76
2022/10/09 04:06:27;;;;;;;4.40;3.40;;;;;;;;;;4976040;28;20053;-76
2022/10/09 04:08:53;;;;;;;8.77;3.90;;;;;;;;;;4943058;28;20042;-76
2022/10/09 04:11:20;;;;;;;9.75;4.20;;;;;;;;;;4958966;28;20118;-76
2022/10/09 04:13:46;;;;;;;7.95;4.13;;;;;;;;;;4942878;28;20074;-77
2022/10/09 04:16:13;;;;;;;4.22;3.55;;;;;;;;;;4971880;28;20046;-76
2022/10/09 04:18:39;;;;;;;5.30;3.45;;;;;;;;;;4996672;28;20042;-78
2022/10/09 04:21:05;;;;;;;5.93;3.67;;;;;;;;;;4995893;28;20050;-76
2022/10/09 04:23:32;;;;;;;4.30;3.90;;;;;;;;;;4996264;28;20043;-76
2022/10/09 04:25:58;;;;;;;7.40;3.95;;;;;;;;;;4977400;28;20070;-77
2022/10/09 04:28:25;;;;;;;6.55;3.50;;;;;;;;;;4978354;28;20155;-77
2022/10/09 04:30:51;;;;;;;7.38;3.88;;;;;;;;;;4979013;28;20053;-77
2022/10/09 04:33:17;;;;;;;4.88;3.13;;;;;;;;;;4979245;28;20213;-77
2022/10/09 04:35:44;;;;;;;5.05;4.28;;;;;;;;;;4995162;28;20082;-76
2022/10/09 04:38:10;;;;;;;5.47;3.95;;;;;;;;;;4979193;28;20064;-76
2022/10/09 04:40:36;;;;;;;7.35;4.28;;;;;;;;;;4996753;28;20038;-76
2022/10/09 04:43:03;;;;;;;8.63;3.40;;;;;;;;;;4995770;28;20061;-79
2022/10/09 04:45:29;;;;;;;4.45;3.53;;;;;;;;;;4996615;28;20553;-78
2022/10/09 04:47:55;;;;;;;4.43;3.65;;;;;;;;;;4995364;28;20054;-77
2022/10/09 04:50:21;;;;;;;5.80;4.05;;;;;;;;;;4978167;28;20038;-78
2022/10/09 04:52:57;;;;;;;7.85;4.40;;;;;;;;;;4997770;28;20050;-75
2022/10/09 04:55:23;;;;;;;7.18;4.43;;;;;;;;;;4994663;28;20027;-77
2022/10/09 04:57:50;;;;;;;6.40;3.92;;;;;;;;;;4977673;28;20079;-78
2022/10/09 05:00:17;;;;;;;12.38;3.78;;;;;;;;;;4994458;28;20046;-77
2022/10/09 05:02:42;;;;;;;6.53;3.70;;;;;;;;;;4977636;28;20053;-77
2022/10/09 05:05:09;;;;;;;4.60;3.45;;;;;;;;;;4994773;28;20046;-76
2022/10/09 05:07:35;;;;;;;5.88;4.28;;;;;;;;;;4994150;28;20553;-77
2022/10/09 05:10:01;;;;;;;6.68;4.00;;;;;;;;;;4977227;28;20030;-77
2022/10/09 05:12:29;;;;;;;7.15;4.07;;;;;;;;;;4977453;28;20051;-77
2022/10/09 05:14:55;;;;;;;4.10;3.53;;;;;;;;;;4994741;28;20046;-78
2022/10/09 05:17:21;;;;;;;6.05;3.88;;;;;;;;;;4994771;28;20043;-77
2022/10/09 05:19:48;;;;;;;5.60;3.35;;;;;;;;;;4994847;28;20042;-78
2022/10/09 05:22:14;;;;;;;3.67;3.38;;;;;;;;;;4960902;28;20059;-78
2022/10/09 05:24:41;;;;;;;6.18;3.15;;;;;;;;;;4976911;28;20529;-78
2022/10/09 05:27:07;;;;;;;5.22;3.50;;;;;;;;;;4994023;28;20519;-78
2022/10/09 05:29:34;;;;;;;4.85;3.40;;;;;;;;;;4977279;28;20072;-78
2022/10/09 05:32:00;;;;;;;7.95;3.63;;;;;;;;;;4993881;28;20124;-78
2022/10/09 05:34:26;;;;;;;6.32;3.28;;;;;;;;;;4977106;28;20586;-77
2022/10/09 05:36:52;;;;;;;5.25;3.00;;;;;;;;;;4994045;28;20551;-79
2022/10/09 05:39:19;;;;;;;7.10;3.47;;;;;;;;;;4976746;28;20046;-78
2022/10/09 05:41:45;;;;;;;7.75;3.50;;;;;;;;;;4976562;28;20052;-77
2022/10/09 05:44:12;;;;;;;8.10;3.80;;;;;;;;;;4994613;28;20042;-79
2022/10/09 05:46:38;;;;;;;8.00;3.55;;;;;;;;;;4977932;28;20499;-78
2022/10/09 05:49:05;;;;;;;4.03;3.03;;;;;;;;;;4992281;28;20499;-78
2022/10/09 05:51:32;;;;;;;6.68;4.35;;;;;;;;;;4976573;28;20133;-78
2022/10/09 05:54:00;;;;;;;4.78;3.33;;;;;;;;;;4959496;28;20039;-79
2022/10/09 05:56:28;;;;;;;10.05;3.75;;;;;;;;;;4994094;28;20054;-78
2022/10/09 05:58:56;;;;;;;4.32;3.35;;;;;;;;;;4961292;28;20046;-79
2022/10/09 06:01:23;;;;;;;14.50;3.50;;;;;;;;;;4995037;28;20084;-78
2022/10/09 06:03:51;;;;;;;6.43;3.40;;;;;;;;;;4977400;28;20046;-79
2022/10/09 06:06:18;;;;;;;3.60;2.80;;;;;;;;;;4995081;28;20050;-77
2022/10/09 06:08:44;;;;;;;3.83;3.40;;;;;;;;;;4993154;28;20507;-76
2022/10/09 06:11:17;;;;;;;5.18;3.22;;;;;;;;;;4993581;28;20042;-78
2022/10/09 06:13:44;;;;;;;5.57;3.47;;;;;;;;;;4976935;28;20065;-78
2022/10/09 06:16:11;;;;;;;4.10;3.30;;;;;;;;;;4993961;28;20042;-79
2022/10/09 06:18:37;;;;;;;6.00;3.40;;;;;;;;;;4977247;28;20102;-78
2022/10/09 06:21:04;;;;;;;5.78;3.45;;;;;;;;;;4975549;28;20042;-78
2022/10/09 06:23:33;;;;;;;7.22;3.97;;;;;;;;;;4977295;28;20030;-78
2022/10/09 06:26:03;;;;;;;7.15;3.65;;;;;;;;;;4993788;28;20133;-79
2022/10/09 06:28:29;;;;;;;;;;;;;;;;;;4978603;28;20068;-79
2022/10/09 06:31:05;;;;;;;5.82;3.10;;;;;;;;;;4994270;28;20480;-78
2022/10/09 06:33:31;;;;;;;5.43;2.90;;;;;;;;;;4961463;28;20054;-78
2022/10/09 06:35:59;;;;;;;6.15;3.10;;;;;;;;;;4994424;28;20053;-78
2022/10/09 06:38:25;;;;;;;7.50;3.00;;;;;;;;;;4994568;28;20050;-79
2022/10/09 06:40:52;;;;;;;3.25;2.95;;;;;;;;;;4996105;28;20553;-78
2022/10/09 06:43:18;;;;;;;3.67;3.33;;;;;;;;;;5000009;28;20046;-78
2022/10/09 06:45:45;;;;;;;3.60;2.80;;;;;;;;;;4962231;28;20065;-77
2022/10/09 06:48:10;;;;;;;4.18;3.10;;;;;;;;;;4960844;28;20148;-79
2022/10/09 06:50:37;;;;;;;5.47;3.13;;;;;;;;;;4994512;28;20089;-78
2022/10/09 06:53:03;;;;;;;5.55;3.15;;;;;;;;;;4977271;28;20412;-77
2022/10/09 06:55:29;;;;;;;7.70;3.75;;;;;;;;;;4995562;28;20117;-78
2022/10/09 06:57:55;;;;;;;5.00;3.50;;;;;;;;;;4977070;28;20080;-78
2022/10/09 07:00:22;;;;;;;5.05;3.55;;;;;;;;;;4994972;28;20042;-78
2022/10/09 07:02:49;;;;;;;4.32;2.63;;;;;;;;;;4993610;28;20088;-79
2022/10/09 07:05:15;;;;;;;8.57;3.50;;;;;;;;;;4978627;28;20483;-78
2022/10/09 07:07:41;;;;;;;3.65;3.35;;;;;;;;;;4960990;28;20053;-77
2022/10/09 07:10:08;;;;;;;5.82;3.65;;;;;;;;;;4994170;28;20042;-78
2022/10/09 07:12:34;;;;;;;6.03;3.50;;;;;;;;;;4994995;28;20050;-79
2022/10/09 07:15:01;;;;;;;7.18;4.82;;;;;;;;;;4991059;28;20423;-78
2022/10/09 07:17:29;;;;;;;5.85;3.42;;;;;;;;;;4957975;28;20061;-77
2022/10/09 07:19:55;;;;;;;4.38;3.20;;;;;;;;;;4973831;28;20072;-78
2022/10/09 07:22:22;;;;;;;8.60;3.65;;;;;;;;;;4956647;28;20042;-78
2022/10/09 07:24:49;;;;;;;3.30;2.83;;;;;;;;;;4924990;28;20070;-77
2022/10/09 07:27:16;;;;;;;5.97;3.50;;;;;;;;;;4973503;28;20145;-78
2022/10/09 07:41:00;;;;;;;5.15;3.25;;;;;;;;;;5067977;27;20216;-73
2022/10/09 07:43:27;;;;;;;3.58;2.88;;;;;;;;;;5063883;28;20037;-73
2022/10/09 07:45:56;;;;;;;4.10;3.10;;;;;;;;;;5063935;28;20056;-73
2022/10/09 07:48:22;;;;;;;8.18;3.20;;;;;;;;;;5063868;28;20033;-74
2022/10/09 07:50:48;;;;;;;5.78;3.25;;;;;;;;;;5065102;28;20415;-73
2022/10/09 07:53:14;;;;;;;9.45;3.55;;;;;;;;;;5065195;28;20035;-73
2022/10/09 07:55:43;;;;;;;3.25;2.80;;;;;;;;;;5064583;28;20512;-73
2022/10/09 07:58:10;;;;;;;6.57;3.63;;;;;;;;;;5065026;28;20040;-73
2022/10/09 08:00:36;;;;;;;5.30;3.50;;;;;;;;;;5063160;28;20041;-73
2022/10/09 08:03:03;;;;;;;12.23;3.67;;;;;;;;;;5063680;28;20036;-73
2022/10/09 08:05:28;;;;;;;5.05;2.92;;;;;;;;;;5064753;28;20455;-71
2022/10/09 08:07:55;;;;;;;8.95;3.40;;;;;;;;;;5065034;28;20528;-74
2022/10/09 08:10:22;;;;;;;6.70;3.35;;;;;;;;;;5063191;28;20166;-74
2022/10/09 08:12:48;;;;;;;4.32;3.10;;;;;;;;;;5064690;28;20033;-74
2022/10/09 08:15:14;;;;;;;3.67;3.20;;;;;;;;;;5064614;28;20033;-74
2022/10/09 08:17:40;;;;;;;4.22;2.88;;;;;;;;;;5063224;28;20095;-73
2022/10/09 08:20:07;;;;;;;6.28;3.70;;;;;;;;;;5063105;28;20037;-73
2022/10/09 08:22:33;;;;;;;3.40;3.10;;;;;;;;;;5064281;28;20055;-73
2022/10/09 08:25:00;;;;;;;4.57;3.05;;;;;;;;;;5064471;28;20040;-74
2022/10/09 08:27:27;;;;;;;4.28;3.30;;;;;;;;;;5064110;28;20041;-73
2022/10/09 08:29:53;;;;;;;3.38;3.05;;;;;;;;;;5062970;28;20048;-73
2022/10/09 08:32:19;;;;;;;4.20;3.30;;;;;;;;;;5064274;28;20044;-73
2022/10/09 08:34:45;;;;;;;4.88;3.13;;;;;;;;;;5062526;28;20097;-74
2022/10/09 08:37:11;;;;;;;5.15;3.08;;;;;;;;;;5064101;28;20029;-73
2022/10/09 08:39:38;;;;;;;5.20;2.70;;;;;;;;;;5051351;28;20053;-73
2022/10/09 08:42:04;;;;;;;8.77;3.20;;;;;;;;;;5030591;28;20175;-73
2022/10/09 08:44:49;;;;;;;3.30;2.90;;;;;;;;;;5029751;28;20029;-73
2022/10/09 08:47:16;;;;;;;3.63;3.08;;;;;;;;;;5031213;28;20041;-74
2022/10/09 08:49:54;;;;;;;7.38;3.10;;;;;;;;;;5030427;28;20060;-73
2022/10/09 08:52:23;;;;;;;4.65;3.70;;;;;;;;;;5031058;28;20034;-73
2022/10/09 08:54:50;;;;;;;4.40;2.95;;;;;;;;;;5030980;28;20041;-73
2022/10/09 08:57:15;;;;;;;5.20;3.17;;;;;;;;;;5029482;28;20039;-74
2022/10/09 08:59:42;;;;;;;7.20;3.40;;;;;;;;;;5029017;28;20045;-73
2022/10/09 09:02:08;;;;;;;6.45;3.10;;;;;;;;;;5030707;28;20033;-73
2022/10/09 09:04:43;;;;;;;4.93;3.30;;;;;;;;;;5032592;28;20036;-73
2022/10/09 09:07:25;;;;;;;3.33;2.60;;;;;;;;;;5049431;28;20068;-73
2022/10/09 09:09:58;;;;;;;5.25;2.90;;;;;;;;;;5049982;28;20053;-73
2022/10/09 09:12:26;;;;;;;3.40;3.10;;;;;;;;;;5050279;28;20029;-72
2022/10/09 09:15:05;;;;;;;4.53;2.92;;;;;;;;;;5016401;28;20037;-72
2022/10/09 09:17:31;;;;;;;6.70;3.00;;;;;;;;;;5050650;28;20036;-74
2022/10/09 09:20:07;;;;;;;2.75;2.40;;;;;;;;;;5050982;28;20037;-73
2022/10/09 09:22:33;;;;;;;4.85;2.83;;;;;;;;;;5049095;28;20072;-73
2022/10/09 09:24:59;;;;;;;3.38;2.70;;;;;;;;;;5050484;28;20099;-73
2022/10/09 09:27:35;;;;;;;3.08;2.83;;;;;;;;;;5049213;28;20068;-73
2022/10/09 09:30:03;;;;;;;4.55;2.83;;;;;;;;;;5049997;28;20052;-73
2022/10/09 09:32:31;;;;;;;4.82;2.28;;;;;;;;;;5049911;28;20450;-73
2022/10/09 09:35:18;;;;;;;5.07;3.05;;;;;;;;;;5032173;28;20048;-73
2022/10/09 09:37:45;;;;;;;3.35;2.65;;;;;;;;;;5032155;28;20044;-73
2022/10/09 09:40:13;;;;;;;3.45;2.60;;;;;;;;;;5015258;28;20816;-73
2022/10/09 09:42:39;;;;;;;2.67;2.47;;;;;;;;;;5021909;28;20033;-73
2022/10/09 10:52:25;;;;;;;3.92;2.60;;;;;;;;;;4902625;22;20091;-88
